Aérodrome :
LOGIN :

S'inscrire | Disclaimer

   EN    FR    IT 

 










Légende :    VFR   VFR Marginal   IFR   IFR Intensif   IFR Très Intensif
Visi : 
Plafond : 
>= 8 km
>= 3000ft
5 à 8 km
1000 à 3000 ft
1500m à 5 km
500 à 1000 ft
800 à 1500m
200 à 500 ft
< 800m
< 200 ft
Symboles :   Orages  Brouillard  Fortes neiges  Fortes précipitations  Vent > 20 kt
SIGMETs :   Divers  Orages  Givrage  Turbulence  Onde Orograph.  Cendres Volcan.






- Altitude de l'aérodrome : 323 ft
- Code IATA : KUO


EFKU - Kuopio

DERNIER METAR :
  • 040950Z AUTO 25015KT 220V280 9999 BKN034 01/M07 Q1004

METARs EXPIRÉS :
  • 040920Z AUTO 26011KT 230V290 9999 SCT031 01/M06 Q1003
  • 040850Z AUTO 25011KT 210V270 9999 FEW030 00/M06 Q1003
  • 040820Z AUTO 25007KT 220V280 CAVOK M00/M06 Q1003
  • 040750Z AUTO 25009KT 230V290 CAVOK M01/M06 Q1002
  • 040720Z AUTO 27006KT 230V300 9999 NCD M02/M06 Q1002

TAF TAF EFKU
Valide du 04 à 09h jusqu'au 05 à 09h UTC


040822Z 0409/0509 26012KT CAVOK
TEMPO 0411/0417 1500 SHSN FEW030CB



MET'MAP, la Météo Aéronautique d'un coup d'oeil ! - Copyright ORBIFLY Décembre 2007 - Disclaimer

ORBIFLY MET'MAP TEAM :

Programmation & Développement : Alexandra Zaïnal
Sur une idée originale de : Baudouin d'Aumeries
Assistance à la programmation : Marc-Olivier Méhu
Soutien technique & logistique : Manuel Goepfert

Contact : metmap@orbifly.com




SOURCES & CREDITS :

   NOAA